createdAt,value
2019-02-12T00:02:20.813Z,8.20
2019-02-12T00:04:49.396Z,4.90
2019-02-12T00:07:18.024Z,6.93
2019-02-12T00:09:46.644Z,4.60
2019-02-12T00:12:15.277Z,8.20
2019-02-12T00:14:43.888Z,7.87
2019-02-12T00:17:12.516Z,5.97
2019-02-12T00:19:41.455Z,6.20
2019-02-12T00:22:10.104Z,9.67
2019-02-12T00:24:39.024Z,5.30
2019-02-12T00:27:07.667Z,4.90
2019-02-12T00:29:36.326Z,3.87
2019-02-12T00:32:04.958Z,5.63
2019-02-12T00:34:33.578Z,4.57
2019-02-12T00:37:02.551Z,7.27
2019-02-12T00:39:31.168Z,6.03
2019-02-12T00:41:59.796Z,6.83
2019-02-12T00:44:28.718Z,8.73
2019-02-12T00:46:57.335Z,10.20
2019-02-12T00:49:26.289Z,7.17
2019-02-12T00:51:55.175Z,6.17
2019-02-12T00:54:24.206Z,4.33
2019-02-12T00:56:52.693Z,7.83
2019-02-12T00:59:21.620Z,6.53
2019-02-12T01:01:50.621Z,8.13
2019-02-12T01:04:19.234Z,11.90
2019-02-12T01:06:47.889Z,9.63
2019-02-12T01:09:16.876Z,8.60
2019-02-12T01:11:45.517Z,7.87
2019-02-12T01:14:14.128Z,9.20
2019-02-12T01:16:42.763Z,8.43
2019-02-12T01:19:11.381Z,6.13
2019-02-12T01:21:40.013Z,8.43
2019-02-12T01:24:08.636Z,10.10
2019-02-12T01:26:37.273Z,7.47
2019-02-12T01:29:05.891Z,4.43
2019-02-12T01:31:34.859Z,5.67
2019-02-12T01:34:03.817Z,8.80
2019-02-12T01:36:32.807Z,5.97
2019-02-12T01:39:01.801Z,8.00
2019-02-12T01:41:30.792Z,7.33
2019-02-12T01:43:59.682Z,6.63
2019-02-12T01:46:28.314Z,6.03
2019-02-12T01:48:56.944Z,6.53
2019-02-12T01:51:25.583Z,7.43
2019-02-12T01:53:54.214Z,8.37
2019-02-12T01:56:22.858Z,4.63
2019-02-12T01:58:51.470Z,5.97
2019-02-12T02:01:20.147Z,6.10
2019-02-12T02:03:48.782Z,6.90
2019-02-12T02:06:17.390Z,8.33
2019-02-12T02:08:46.007Z,7.50
2019-02-12T02:11:14.638Z,6.60
2019-02-12T02:13:43.272Z,4.03
2019-02-12T02:16:11.941Z,6.30
2019-02-12T02:18:40.850Z,6.87
2019-02-12T02:21:09.491Z,7.13
2019-02-12T02:23:38.419Z,6.57
2019-02-12T02:26:07.042Z,6.93
2019-02-12T02:28:36.000Z,7.53
2019-02-12T02:31:04.642Z,7.73
2019-02-12T02:33:33.557Z,7.07
2019-02-12T02:36:02.188Z,6.63
2019-02-12T02:38:30.872Z,10.37
2019-02-12T02:40:59.430Z,5.30
2019-02-12T02:43:28.059Z,3.07
2019-02-12T02:45:56.673Z,6.77
2019-02-12T02:48:25.301Z,6.70
2019-02-12T02:50:53.906Z,7.93
2019-02-12T02:53:22.765Z,10.53
2019-02-12T02:55:51.399Z,10.00
2019-02-12T02:58:20.034Z,6.97
2019-02-12T03:00:48.655Z,10.07
2019-02-12T03:03:17.553Z,5.40
2019-02-12T03:05:46.480Z,6.77
2019-02-12T03:08:15.140Z,6.03
2019-02-12T03:10:43.740Z,10.17
2019-02-12T03:13:12.361Z,3.60
2019-02-12T03:15:40.980Z,9.20
2019-02-12T03:18:09.607Z,6.50
2019-02-12T03:20:38.230Z,2.97
2019-02-12T03:23:06.850Z,7.80
2019-02-12T03:25:35.506Z,7.97
2019-02-12T03:28:04.104Z,6.10
2019-02-12T03:30:32.726Z,6.87
2019-02-12T03:33:01.361Z,10.70
2019-02-12T03:35:29.972Z,5.90
2019-02-12T03:37:58.611Z,7.80
2019-02-12T03:40:27.208Z,10.23
2019-02-12T03:42:56.202Z,9.87
2019-02-12T03:45:24.832Z,8.10
2019-02-12T03:47:53.461Z,12.03
2019-02-12T03:50:22.079Z,6.23
2019-02-12T03:52:50.709Z,5.53
2019-02-12T03:55:19.328Z,6.10
2019-02-12T03:57:47.954Z,8.13
2019-02-12T04:00:16.859Z,8.37
2019-02-12T04:05:45.561Z,5.37
2019-02-12T04:08:14.188Z,7.17
2019-02-12T04:10:42.798Z,7.50
2019-02-12T04:13:11.424Z,7.23
2019-02-12T04:15:40.033Z,5.60
2019-02-12T04:18:08.676Z,8.47
2019-02-12T04:20:37.299Z,7.03
2019-02-12T04:23:06.265Z,10.53
2019-02-12T04:25:34.888Z,9.40
2019-02-12T04:28:03.498Z,5.57
2019-02-12T04:30:32.116Z,5.07
2019-02-12T04:33:00.747Z,12.70
2019-02-12T04:35:29.373Z,7.20
2019-02-12T04:37:58.027Z,11.87
2019-02-12T04:40:26.643Z,8.27
2019-02-12T04:42:55.530Z,5.87
2019-02-12T04:45:24.165Z,5.47
2019-02-12T04:47:52.790Z,5.00
2019-02-12T04:50:21.412Z,10.83
2019-02-12T04:52:50.048Z,10.27
2019-02-12T04:55:18.653Z,8.10
2019-02-12T04:57:47.645Z,6.93
2019-02-12T05:00:16.398Z,5.70
2019-02-12T05:02:44.915Z,7.87
2019-02-12T05:05:13.539Z,10.57
2019-02-12T05:07:42.204Z,10.00
2019-02-12T05:10:14.036Z,8.13
2019-02-12T05:12:42.652Z,11.63
2019-02-12T05:15:11.604Z,8.07
2019-02-12T05:17:40.195Z,11.07
2019-02-12T05:20:08.848Z,10.60
2019-02-12T05:22:43.599Z,5.87
2019-02-12T05:25:06.102Z,8.73
2019-02-12T05:27:35.022Z,5.20
2019-02-12T05:30:03.651Z,9.17
2019-02-12T05:32:32.288Z,9.27
2019-02-12T05:35:01.269Z,10.30
2019-02-12T05:37:29.898Z,10.50
2019-02-12T05:39:58.515Z,7.43
2019-02-12T05:42:27.139Z,6.77
2019-02-12T05:44:56.029Z,6.77
2019-02-12T05:47:24.999Z,6.23
2019-02-12T05:49:53.628Z,10.47
2019-02-12T05:52:22.240Z,4.90
2019-02-12T05:54:50.866Z,12.27
2019-02-12T05:57:19.477Z,10.03
2019-02-12T05:59:48.086Z,9.20
2019-02-12T06:02:16.705Z,10.40
2019-02-12T06:04:45.336Z,8.77
2019-02-12T06:07:13.945Z,7.10
2019-02-12T06:09:42.575Z,6.97
2019-02-12T06:12:11.181Z,18.43
2019-02-12T06:14:39.791Z,9.77
2019-02-12T06:17:08.395Z,11.10
2019-02-12T06:19:37.019Z,14.13
2019-02-12T06:22:05.640Z,9.53
2019-02-12T06:24:34.274Z,10.47
2019-02-12T06:27:02.885Z,9.50
2019-02-12T06:29:31.514Z,14.93
2019-02-12T06:32:00.497Z,7.23
2019-02-12T06:34:29.145Z,9.67
2019-02-12T06:36:57.743Z,11.43
2019-02-12T06:39:26.662Z,8.77
2019-02-12T06:41:55.261Z,6.37
2019-02-12T06:44:23.886Z,5.57
2019-02-12T06:46:52.497Z,6.43
2019-02-12T06:49:21.143Z,11.20
2019-02-12T06:51:49.762Z,8.80
2019-02-12T06:54:18.376Z,10.87
2019-02-12T06:56:46.981Z,9.03
2019-02-12T06:59:15.602Z,9.87
2019-02-12T07:01:44.493Z,14.20
2019-02-12T07:04:13.121Z,8.77
2019-02-12T07:09:31.960Z,8.07
2019-02-12T07:14:51.081Z,12.73
2019-02-12T07:23:41.253Z,13.67
2019-02-12T07:26:48.030Z,5.27
2019-02-12T07:29:32.088Z,9.03
2019-02-12T07:32:31.994Z,10.63
2019-02-12T07:35:03.363Z,6.70
2019-02-12T07:37:37.755Z,9.23
2019-02-12T07:43:15.801Z,5.50
2019-02-12T07:51:28.433Z,8.07
2019-02-12T07:57:31.113Z,9.60
2019-02-12T07:59:59.762Z,10.17
2019-02-12T08:02:43.769Z,7.23
2019-02-12T08:05:18.383Z,6.63
2019-02-12T08:08:12.237Z,7.97
2019-02-12T08:13:30.967Z,6.23
2019-02-12T08:16:18.387Z,4.27
2019-02-12T08:18:56.197Z,6.77
2019-02-12T08:21:33.749Z,6.07
2019-02-12T08:32:53.312Z,6.07
2019-02-12T08:38:30.350Z,6.63
2019-02-12T08:41:17.696Z,6.03
2019-02-12T08:47:20.525Z,6.73
2019-02-12T08:50:13.910Z,7.30
2019-02-12T08:53:20.257Z,5.53
2019-02-12T09:01:48.704Z,4.27
2019-02-12T09:04:32.688Z,4.07
2019-02-12T09:07:07.292Z,3.37
2019-02-12T09:09:57.689Z,3.83
2019-02-12T09:12:26.795Z,3.20
2019-02-12T09:15:16.736Z,4.00
2019-02-12T09:17:51.638Z,4.37
2019-02-12T09:20:26.797Z,4.90
2019-02-12T09:23:04.692Z,3.47
2019-02-12T09:28:15.080Z,7.17
2019-02-12T09:34:05.107Z,7.47
2019-02-12T09:36:45.869Z,11.33
2019-02-12T09:39:35.980Z,2.50
2019-02-12T09:50:39.785Z,9.80
2019-02-12T09:53:33.293Z,7.63
2019-02-12T09:56:10.929Z,10.50
2019-02-12T09:58:51.707Z,6.73
2019-02-12T10:04:13.674Z,6.17
2019-02-12T10:07:00.524Z,7.97
2019-02-12T10:12:10.502Z,5.93
2019-02-12T10:14:54.229Z,8.43
2019-02-12T10:17:25.602Z,4.47
2019-02-12T10:22:56.891Z,4.20
2019-02-12T10:25:25.516Z,8.77
2019-02-12T10:33:39.654Z,10.83
2019-02-12T10:36:08.268Z,5.20
2019-02-12T10:38:36.902Z,9.33
2019-02-12T10:41:05.523Z,7.20
2019-02-12T10:43:34.139Z,4.23
2019-02-12T10:46:02.753Z,5.47
2019-02-12T10:48:31.389Z,1.90
2019-02-12T10:51:00.005Z,4.60
2019-02-12T10:53:29.644Z,4.13
2019-02-12T10:55:57.238Z,2.67
2019-02-12T10:58:25.892Z,3.30
2019-02-12T11:00:54.488Z,5.43
2019-02-12T11:03:23.430Z,4.03
2019-02-12T11:05:52.034Z,4.80
2019-02-12T11:08:20.652Z,4.57
2019-02-12T11:10:49.268Z,6.03
2019-02-12T11:13:17.905Z,6.83
2019-02-12T11:15:46.529Z,4.87
2019-02-12T11:18:15.148Z,5.17
2019-02-12T11:20:43.770Z,7.57
2019-02-12T11:23:12.408Z,6.80
2019-02-12T11:25:41.381Z,6.90
2019-02-12T11:28:10.048Z,5.87
2019-02-12T11:30:38.681Z,10.50
2019-02-12T11:33:07.347Z,4.67
2019-02-12T11:35:36.959Z,5.13
2019-02-12T11:38:04.615Z,7.20
2019-02-12T11:40:33.240Z,8.03
2019-02-12T11:43:01.872Z,9.03
2019-02-12T11:45:30.480Z,6.10
2019-02-12T11:47:59.100Z,9.77
2019-02-12T11:50:27.714Z,3.53
2019-02-12T11:52:56.323Z,8.20
2019-02-12T11:55:24.954Z,4.30
2019-02-12T11:57:53.572Z,7.63
2019-02-12T12:00:22.193Z,3.10
2019-02-12T12:02:51.136Z,6.93
2019-02-12T12:05:19.754Z,5.40
2019-02-12T12:07:48.357Z,7.20
2019-02-12T12:10:16.976Z,3.77
2019-02-12T12:12:45.971Z,12.07
2019-02-12T12:15:14.963Z,10.03
2019-02-12T12:17:43.593Z,7.70
2019-02-12T12:20:15.173Z,6.90
2019-02-12T12:22:43.834Z,4.60
2019-02-12T12:25:12.441Z,4.97
2019-02-12T12:27:41.084Z,7.73
2019-02-12T12:30:10.039Z,5.83
2019-02-12T12:32:38.701Z,3.80
2019-02-12T12:35:07.332Z,5.07
2019-02-12T12:37:35.939Z,4.70
2019-02-12T12:40:04.568Z,6.70
2019-02-12T12:42:33.215Z,5.67
2019-02-12T12:45:01.830Z,4.77
2019-02-12T12:47:30.465Z,8.07
2019-02-12T12:49:59.273Z,7.50
2019-02-12T12:52:27.707Z,8.03
2019-02-12T12:54:59.883Z,5.97
2019-02-12T12:57:24.916Z,10.13
2019-02-12T12:59:53.594Z,7.27
2019-02-12T13:02:22.157Z,7.53
2019-02-12T13:04:50.788Z,8.87
2019-02-12T13:07:19.396Z,3.40
2019-02-12T13:09:48.033Z,5.47
2019-02-12T13:12:16.671Z,3.83
2019-02-12T13:14:45.305Z,8.23
2019-02-12T13:17:13.936Z,5.57
2019-02-12T13:19:42.569Z,4.00
2019-02-12T13:22:11.481Z,8.83
2019-02-12T13:24:41.749Z,4.83
2019-02-12T13:27:09.397Z,5.67
2019-02-12T13:29:38.023Z,4.03
2019-02-12T13:32:06.660Z,4.73
2019-02-12T13:34:35.296Z,6.47
2019-02-12T13:37:04.189Z,4.20
2019-02-12T13:39:33.074Z,7.23
2019-02-12T13:42:01.976Z,8.50
2019-02-12T13:44:30.958Z,4.67
2019-02-12T13:46:59.960Z,6.97
2019-02-12T13:49:28.582Z,6.73
2019-02-12T13:51:57.182Z,4.77
2019-02-12T13:54:25.797Z,4.93
2019-02-12T13:56:54.413Z,7.33
2019-02-12T13:59:23.048Z,7.80
2019-02-12T14:01:51.669Z,6.33
2019-02-12T14:04:20.307Z,4.73
2019-02-12T14:06:48.914Z,7.50
2019-02-12T14:09:17.549Z,6.93
2019-02-12T14:11:46.488Z,6.60
2019-02-12T14:14:15.123Z,5.07
2019-02-12T14:16:43.722Z,4.57
2019-02-12T14:19:12.641Z,3.00
2019-02-12T14:21:41.273Z,6.40
2019-02-12T14:24:09.919Z,3.07
2019-02-12T14:26:38.525Z,5.97
2019-02-12T14:29:07.223Z,6.57
2019-02-12T14:31:35.773Z,6.40
2019-02-12T14:34:04.403Z,9.93
2019-02-12T14:36:33.022Z,9.47
2019-02-12T14:39:02.015Z,7.10
2019-02-12T14:41:30.613Z,8.97
2019-02-12T14:43:59.246Z,7.03
2019-02-12T14:46:27.865Z,7.87
2019-02-12T14:48:56.490Z,7.07
2019-02-12T14:51:25.101Z,5.23
2019-02-12T14:53:53.735Z,7.97
2019-02-12T14:56:22.692Z,11.53
2019-02-12T14:58:51.347Z,7.73
2019-02-12T15:01:19.967Z,7.43
2019-02-12T15:03:48.597Z,8.47
2019-02-12T15:06:17.536Z,6.73
2019-02-12T15:08:46.185Z,5.37
2019-02-12T15:11:14.805Z,11.67
2019-02-12T15:13:43.796Z,8.50
2019-02-12T15:16:12.403Z,5.57
2019-02-12T15:18:41.026Z,8.67
2019-02-12T15:21:09.652Z,7.17
2019-02-12T15:23:38.273Z,10.27
2019-02-12T15:26:06.903Z,6.00
2019-02-12T15:28:35.512Z,9.57
2019-02-12T15:31:04.133Z,7.90
2019-02-12T15:33:32.743Z,4.80
2019-02-12T15:36:01.732Z,7.27
2019-02-12T15:38:30.341Z,6.00
2019-02-12T15:40:58.969Z,5.57
2019-02-12T15:43:27.606Z,8.97
2019-02-12T15:45:56.237Z,9.73
2019-02-12T15:48:25.163Z,7.00
2019-02-12T15:50:53.786Z,9.47
2019-02-12T15:53:22.375Z,5.60
2019-02-12T15:55:51.638Z,7.97
2019-02-12T15:58:19.899Z,7.80
2019-02-12T16:00:48.538Z,7.43
2019-02-12T16:03:18.376Z,9.93
2019-02-12T16:05:45.772Z,10.13
2019-02-12T16:08:14.406Z,6.43
2019-02-12T16:10:43.319Z,8.57
2019-02-12T16:13:13.569Z,9.13
2019-02-12T16:15:41.518Z,12.10
2019-02-12T16:18:09.514Z,9.83
2019-02-12T16:20:38.121Z,8.80
2019-02-12T16:23:06.737Z,12.03
2019-02-12T16:25:35.366Z,9.03
2019-02-12T16:28:04.313Z,14.93
2019-02-12T16:30:32.935Z,11.33
2019-02-12T16:33:01.877Z,9.47
2019-02-12T16:35:30.523Z,9.63
2019-02-12T16:37:59.151Z,9.13
2019-02-12T16:40:27.789Z,11.50
2019-02-12T16:42:56.424Z,7.83
2019-02-12T16:45:37.002Z,9.93
2019-02-12T16:48:05.615Z,11.00
2019-02-12T16:50:34.346Z,6.47
2019-02-12T16:53:02.968Z,7.93
2019-02-12T16:55:31.588Z,14.27
2019-02-12T16:58:00.215Z,8.87
2019-02-12T17:00:28.849Z,6.03
2019-02-12T17:02:57.462Z,13.13
2019-02-12T17:05:26.078Z,10.03
2019-02-12T17:07:54.692Z,6.43
2019-02-12T17:10:23.601Z,6.00
2019-02-12T17:12:52.215Z,8.33
2019-02-12T17:15:20.838Z,10.30
2019-02-12T17:17:49.533Z,8.50
2019-02-12T17:20:18.170Z,11.00
2019-02-12T17:22:47.138Z,9.77
2019-02-12T17:25:15.772Z,7.30
2019-02-12T17:27:44.381Z,5.50
2019-02-12T17:32:54.335Z,9.53
2019-02-12T17:35:22.955Z,9.70
2019-02-12T17:37:51.561Z,8.47
2019-02-12T17:40:20.174Z,12.23
2019-02-12T17:42:48.794Z,7.43
2019-02-12T17:45:17.493Z,9.23
2019-02-12T17:47:46.128Z,7.80
2019-02-12T17:50:14.762Z,6.97
2019-02-12T17:52:43.388Z,7.37
2019-02-12T17:55:12.007Z,9.27
2019-02-12T17:57:40.616Z,12.23
2019-02-12T18:00:15.244Z,16.07
2019-02-12T18:02:43.872Z,9.50
2019-02-12T18:05:12.506Z,8.50
2019-02-12T18:07:41.107Z,6.50
2019-02-12T18:10:09.742Z,15.37
2019-02-12T18:12:38.343Z,8.27
2019-02-12T18:15:06.987Z,10.00
2019-02-12T18:17:35.591Z,10.53
2019-02-12T18:20:04.245Z,13.73
2019-02-12T18:22:32.875Z,11.20
2019-02-12T18:25:01.836Z,12.20
2019-02-12T18:27:30.509Z,12.30
2019-02-12T18:29:59.419Z,14.50
2019-02-12T18:32:28.068Z,10.30
2019-02-12T18:34:56.996Z,14.23
2019-02-12T18:37:26.014Z,11.03
2019-02-12T18:39:54.647Z,11.63
2019-02-12T18:42:23.548Z,6.47
2019-02-12T18:44:52.163Z,12.87
2019-02-12T18:47:20.789Z,7.97
2019-02-12T18:49:49.401Z,8.07
2019-02-12T18:52:18.027Z,10.10
2019-02-12T18:54:46.658Z,11.10
2019-02-12T18:57:15.271Z,13.33
2019-02-12T18:59:43.884Z,11.13
2019-02-12T19:02:12.500Z,9.53
2019-02-12T19:04:41.416Z,13.50
2019-02-12T19:07:10.041Z,7.97
2019-02-12T19:09:38.677Z,7.83
2019-02-12T19:12:07.313Z,9.30
2019-02-12T19:14:35.934Z,8.23
2019-02-12T19:17:04.581Z,9.93
2019-02-12T19:19:33.201Z,9.47
2019-02-12T19:22:02.191Z,8.70
2019-02-12T19:24:30.805Z,8.33
2019-02-12T19:26:59.767Z,11.37
2019-02-12T19:29:28.380Z,9.70
2019-02-12T19:31:59.291Z,10.97
2019-02-12T19:34:25.644Z,5.30
2019-02-12T19:36:54.604Z,10.20
2019-02-12T19:39:23.480Z,9.43
2019-02-12T19:41:52.120Z,7.80
2019-02-12T19:44:20.743Z,9.90
2019-02-12T19:46:49.352Z,8.20
2019-02-12T19:49:17.975Z,11.33
2019-02-12T19:51:46.603Z,8.70
2019-02-12T19:54:15.230Z,11.47
2019-02-12T19:56:43.837Z,10.43
2019-02-12T19:59:12.458Z,9.80
2019-02-12T20:01:41.338Z,9.27
2019-02-12T20:04:09.963Z,13.17
2019-02-12T20:06:38.558Z,14.13
2019-02-12T20:11:42.196Z,12.20
2019-02-12T20:14:10.814Z,13.40
2019-02-12T20:16:39.447Z,14.53
2019-02-12T20:19:08.063Z,12.07
2019-02-12T20:21:36.677Z,12.97
2019-02-12T20:24:05.313Z,13.30
2019-02-12T20:26:34.209Z,12.37
2019-02-12T20:29:02.836Z,16.40
2019-02-12T20:31:32.013Z,11.50
2019-02-12T20:34:00.372Z,15.43
2019-02-12T20:36:28.969Z,11.40
2019-02-12T20:38:57.654Z,19.63
2019-02-12T20:41:26.275Z,14.30
2019-02-12T20:43:55.215Z,11.53
2019-02-12T20:46:24.090Z,14.17
2019-02-12T20:48:52.729Z,11.63
2019-02-12T20:51:21.662Z,14.87
2019-02-12T20:53:50.563Z,13.50
2019-02-12T20:56:19.170Z,17.60
2019-02-12T20:58:47.794Z,20.93
2019-02-12T21:01:16.414Z,17.70
2019-02-12T21:03:45.084Z,26.80
2019-02-12T21:06:13.689Z,22.47
2019-02-12T21:08:42.310Z,19.07
2019-02-12T21:11:10.913Z,22.93
2019-02-12T21:13:39.537Z,17.50
2019-02-12T21:16:08.149Z,19.30
2019-02-12T21:18:36.776Z,17.53
2019-02-12T21:21:05.398Z,17.53
2019-02-12T21:23:34.025Z,17.43
2019-02-12T21:26:02.647Z,22.77
2019-02-12T21:28:31.261Z,18.23
2019-02-12T21:30:59.876Z,23.77
2019-02-12T21:33:28.509Z,21.53
2019-02-12T21:35:57.098Z,16.47
2019-02-12T21:38:26.678Z,22.73
2019-02-12T21:40:54.653Z,18.67
2019-02-12T21:43:23.278Z,23.47
2019-02-12T21:45:51.903Z,18.23
2019-02-12T21:48:20.546Z,17.03
2019-02-12T21:50:49.168Z,19.47
2019-02-12T21:53:17.780Z,26.07
2019-02-12T21:55:46.413Z,19.67
2019-02-12T21:58:15.014Z,20.97
2019-02-12T22:00:44.062Z,18.63
2019-02-12T22:03:12.618Z,18.90
2019-02-12T22:05:41.253Z,18.17
2019-02-12T22:08:09.873Z,16.20
2019-02-12T22:10:46.236Z,23.97
2019-02-12T22:13:07.468Z,23.03
2019-02-12T22:15:36.100Z,22.10
2019-02-12T22:18:04.719Z,23.00
2019-02-12T22:20:33.350Z,22.33
2019-02-12T22:23:02.258Z,21.27
2019-02-12T22:25:31.243Z,21.53
2019-02-12T22:27:59.868Z,18.30
2019-02-12T22:30:28.494Z,17.03
2019-02-12T22:32:57.121Z,15.50
2019-02-12T22:35:25.760Z,21.97
2019-02-12T22:37:54.362Z,17.70
2019-02-12T22:40:22.974Z,17.53
2019-02-12T22:42:51.587Z,16.80
2019-02-12T22:45:20.216Z,22.03
2019-02-12T22:47:48.827Z,19.07
2019-02-12T22:50:17.455Z,21.20
2019-02-12T22:52:46.358Z,18.13
2019-02-12T22:55:15.367Z,17.57
2019-02-12T22:57:49.247Z,21.87
2019-02-12T23:00:27.974Z,18.27
2019-02-12T23:02:56.877Z,23.73
2019-02-12T23:05:25.856Z,18.60
2019-02-12T23:07:54.475Z,18.50
2019-02-12T23:10:23.120Z,18.57
2019-02-12T23:12:51.724Z,17.93
2019-02-12T23:15:20.706Z,19.57
2019-02-12T23:17:49.369Z,18.73
2019-02-12T23:20:18.011Z,26.00
2019-02-12T23:22:46.620Z,17.93
2019-02-12T23:25:15.239Z,22.47
2019-02-12T23:27:44.224Z,20.03
2019-02-12T23:30:13.218Z,24.53
2019-02-12T23:32:41.845Z,21.70
2019-02-12T23:35:10.476Z,20.20
2019-02-12T23:37:39.111Z,22.63
2019-02-12T23:40:07.750Z,25.63
2019-02-12T23:42:36.366Z,21.57
2019-02-12T23:45:04.995Z,18.73
2019-02-12T23:47:33.899Z,14.17
2019-02-12T23:50:02.535Z,15.60
2019-02-12T23:52:31.156Z,26.43
2019-02-12T23:54:59.777Z,19.20
2019-02-12T23:57:28.642Z,17.57
2019-02-12T23:59:57.627Z,16.50
